Los Chavez, New Mexico
Current Conditions -  °F | °C
As of 4:55 PM on Sunday 23 Nov 2014 (Local Time) from KE80 Reporting Station
Clear Clear  
Wind Chill:   Ceiling: Unl
Heat Index:   Visibility: 10mi
Dew Point: -14°   Wind: 25mph
Humidity: 23%   Direction: 300°WNW
Pressure: 29.96"   Gusts: 35mph
Location:  34.5756°N, 106.588°W
Report Text: KE80 232355Z AUTO 30022G30KT 10SM CLR 06/M14 A2996 RMK AO2 T00561140 10103 20056
Loading
Personal Weather Stations






























Interactive Weather Map New forecast layout! Learn more

10-Day Weather Forecast

Advertisements
Track Severe Weather on mobile